Terminal Aerodrome Forecast
Issued by NWS Cheyenne, WY

Home | Current Version | Previous Version | Text Only | Print | Product List | Glossary On
Versions: 1 2 3 4 5 6 7 8 9 10 11 12 13 14 15 16 17 18 19 20 21 22 23 24 25 26 27 28 29 30 31 32 33 34 35 36 37 38 39 40 41 42 43 44 45 46
117
FTUS45 KCYS 282351 CCB
TAFCYS
TAF COR
KCYS 282351Z 2900/2924 10007KT P6SM VCTS SCT040CB BKN080
     FM290300 11007KT P6SM VCSH BKN050
     FM290800 19006KT 4SM BR OVC005
      TEMPO 2910/2914 1/2SM FG VV003
     FM291600 17010KT P6SM SCT060=

USA.gov is the U.S. government's official web portal to all federal, state and local government web resources and services.